createdAt,value
2023-05-24T00:00:35.835Z,10.72
2023-05-24T00:03:04.988Z,10.69
2023-05-24T00:05:32.345Z,10.70
2023-05-24T00:08:00.560Z,10.67
2023-05-24T00:10:27.826Z,10.64
2023-05-24T00:12:58.425Z,10.63
2023-05-24T00:15:25.753Z,10.64
2023-05-24T00:17:53.165Z,10.66
2023-05-24T00:20:21.232Z,10.66
2023-05-24T00:22:48.777Z,10.66
2023-05-24T00:25:16.143Z,10.64
2023-05-24T00:27:43.315Z,10.63
2023-05-24T00:30:11.126Z,10.61
2023-05-24T00:32:38.415Z,10.59
2023-05-24T00:35:06.440Z,10.57
2023-05-24T00:37:34.116Z,10.57
2023-05-24T00:40:01.399Z,10.55
2023-05-24T00:42:28.778Z,10.58
2023-05-24T00:44:56.732Z,10.60
2023-05-24T00:47:24.360Z,10.59
2023-05-24T00:49:52.028Z,10.59
2023-05-24T00:52:19.861Z,10.55
2023-05-24T00:54:48.286Z,10.52
2023-05-24T00:57:15.950Z,10.53
2023-05-24T00:59:43.577Z,10.49
2023-05-24T01:02:11.023Z,10.49
2023-05-24T01:04:38.410Z,10.47
2023-05-24T01:07:27.290Z,10.47
2023-05-24T01:10:25.445Z,10.52
2023-05-24T01:13:06.198Z,10.49
2023-05-24T01:15:57.246Z,10.45
2023-05-24T01:18:33.508Z,10.36
2023-05-24T01:21:13.548Z,10.29
2023-05-24T01:23:52.782Z,10.27
2023-05-24T01:26:40.512Z,10.23
2023-05-24T01:29:08.663Z,10.15
2023-05-24T01:31:38.147Z,10.08
2023-05-24T01:34:05.335Z,10.00
2023-05-24T01:36:33.116Z,9.94
2023-05-24T01:39:00.719Z,9.94
2023-05-24T01:41:34.104Z,9.96
2023-05-24T01:44:13.519Z,9.97
2023-05-24T01:46:41.351Z,9.97
2023-05-24T01:49:22.784Z,9.97
2023-05-24T01:51:56.307Z,9.96
2023-05-24T01:54:32.922Z,9.91
2023-05-24T01:57:05.481Z,9.91
2023-05-24T01:59:34.334Z,9.90
2023-05-24T02:02:02.097Z,9.90
2023-05-24T02:04:29.972Z,9.89
2023-05-24T02:06:57.505Z,9.90
2023-05-24T02:09:25.269Z,9.91
2023-05-24T02:11:52.376Z,9.92
2023-05-24T02:14:20.108Z,9.98
2023-05-24T02:16:48.083Z,10.05
2023-05-24T02:19:15.920Z,10.09
2023-05-24T02:21:43.597Z,10.08
2023-05-24T02:24:12.796Z,10.09
2023-05-24T02:26:41.161Z,10.09
2023-05-24T02:29:08.723Z,10.11
2023-05-24T02:31:36.205Z,10.16
2023-05-24T02:34:08.238Z,10.30
2023-05-24T02:36:41.215Z,10.63
2023-05-24T02:39:08.738Z,11.00
2023-05-24T02:41:36.292Z,11.34
2023-05-24T02:44:03.749Z,11.69
2023-05-24T02:46:31.295Z,12.04
2023-05-24T02:48:58.903Z,12.45
2023-05-24T02:51:26.916Z,12.82
2023-05-24T02:53:55.534Z,13.12
2023-05-24T02:56:23.092Z,13.48
2023-05-24T02:58:50.507Z,13.92
2023-05-24T03:01:17.831Z,14.36
2023-05-24T03:03:45.974Z,14.79
2023-05-24T03:06:16.743Z,15.24
2023-05-24T03:08:46.334Z,15.78
2023-05-24T03:11:14.314Z,16.29
2023-05-24T03:13:42.817Z,16.77
2023-05-24T03:16:10.974Z,17.27
2023-05-24T03:18:38.778Z,17.74
2023-05-24T03:21:07.701Z,18.18
2023-05-24T03:23:35.340Z,18.74
2023-05-24T03:26:03.078Z,19.34
2023-05-24T03:28:30.497Z,19.96
2023-05-24T03:30:58.382Z,20.56
2023-05-24T03:33:26.499Z,21.06
2023-05-24T03:35:54.057Z,21.60
2023-05-24T03:38:21.751Z,22.27
2023-05-24T03:40:49.238Z,22.87
2023-05-24T03:43:18.628Z,23.51
2023-05-24T03:45:50.311Z,24.16
2023-05-24T03:48:20.977Z,24.70
2023-05-24T03:50:50.953Z,25.21
2023-05-24T03:53:19.217Z,25.65
2023-05-24T03:55:47.717Z,25.98
2023-05-24T03:58:15.261Z,26.27
2023-05-24T04:00:42.774Z,26.77
2023-05-24T04:03:11.286Z,27.36
2023-05-24T04:05:39.857Z,27.85
2023-05-24T04:08:07.155Z,28.21
2023-05-24T04:10:37.975Z,28.29
2023-05-24T04:13:05.472Z,28.33
2023-05-24T04:15:38.265Z,28.21
2023-05-24T04:18:06.366Z,28.07
2023-05-24T04:20:35.404Z,27.89
2023-05-24T04:23:02.969Z,27.48
2023-05-24T04:25:31.212Z,26.92
2023-05-24T04:27:58.839Z,26.82
2023-05-24T04:30:26.699Z,27.11
2023-05-24T04:32:54.132Z,27.42
2023-05-24T04:35:21.779Z,27.94
2023-05-24T04:37:50.528Z,28.62
2023-05-24T04:40:23.297Z,29.21
2023-05-24T04:42:51.466Z,29.84
2023-05-24T04:45:19.192Z,30.17
2023-05-24T04:47:46.956Z,30.39
2023-05-24T04:50:14.528Z,30.40
2023-05-24T04:52:42.134Z,30.73
2023-05-24T04:55:10.416Z,30.91
2023-05-24T04:57:37.886Z,31.05
2023-05-24T05:00:07.616Z,31.53
2023-05-24T05:02:35.256Z,32.16
2023-05-24T05:05:03.354Z,32.69
2023-05-24T05:07:30.914Z,33.35
2023-05-24T05:09:58.798Z,33.67
2023-05-24T05:12:26.355Z,34.06
2023-05-24T05:14:53.959Z,33.81
2023-05-24T05:17:22.216Z,33.72
2023-05-24T05:19:49.945Z,33.99
2023-05-24T05:22:18.093Z,34.37
2023-05-24T05:24:45.854Z,34.86
2023-05-24T05:27:13.322Z,35.25
2023-05-24T05:29:41.798Z,34.89
2023-05-24T05:32:09.748Z,34.71
2023-05-24T05:34:37.164Z,34.77
2023-05-24T05:37:05.104Z,34.28
2023-05-24T05:39:32.637Z,34.43
2023-05-24T05:42:01.548Z,33.97
2023-05-24T05:44:29.274Z,34.17
2023-05-24T05:46:56.754Z,33.94
2023-05-24T05:49:24.579Z,33.58
2023-05-24T05:51:53.339Z,33.94
2023-05-24T05:54:21.072Z,33.87
2023-05-24T05:56:48.650Z,33.80
2023-05-24T05:59:16.421Z,34.18
2023-05-24T06:01:47.506Z,34.32
2023-05-24T06:04:16.681Z,33.82
2023-05-24T06:06:50.108Z,32.95
2023-05-24T06:09:17.713Z,33.42
2023-05-24T06:11:45.516Z,33.40
2023-05-24T06:14:13.621Z,33.81
2023-05-24T06:16:43.804Z,34.23
2023-05-24T06:19:11.398Z,34.50
2023-05-24T06:21:39.290Z,33.70
2023-05-24T06:24:10.010Z,33.37
2023-05-24T06:26:37.792Z,32.95
2023-05-24T06:29:05.400Z,33.29
2023-05-24T06:31:33.336Z,33.38
2023-05-24T06:34:03.970Z,32.47
2023-05-24T06:36:41.642Z,32.43
2023-05-24T06:39:11.363Z,32.25
2023-05-24T06:41:39.443Z,32.54
2023-05-24T06:44:07.471Z,32.91
2023-05-24T06:46:35.074Z,33.91
2023-05-24T06:49:03.091Z,34.16
2023-05-24T06:51:31.602Z,34.43
2023-05-24T06:54:00.310Z,34.76
2023-05-24T06:56:29.385Z,35.33
2023-05-24T06:58:57.437Z,35.35
2023-05-24T07:01:25.287Z,35.25
2023-05-24T07:03:53.213Z,35.40
2023-05-24T07:06:21.097Z,35.69
2023-05-24T07:08:48.826Z,36.76
2023-05-24T07:11:16.725Z,37.66
2023-05-24T07:13:44.318Z,36.49
2023-05-24T07:16:12.141Z,35.27
2023-05-24T07:18:42.060Z,35.24
2023-05-24T07:21:10.083Z,36.28
2023-05-24T07:23:38.596Z,37.42
2023-05-24T07:26:06.434Z,38.23
2023-05-24T07:28:34.866Z,38.70
2023-05-24T07:31:02.306Z,39.40
2023-05-24T07:33:29.967Z,39.74
2023-05-24T07:35:58.787Z,39.77
2023-05-24T07:38:26.920Z,38.90
2023-05-24T07:40:54.664Z,38.19
2023-05-24T07:43:22.284Z,38.82
2023-05-24T07:45:49.960Z,39.54
2023-05-24T07:48:17.380Z,39.48
2023-05-24T07:50:48.926Z,38.60
2023-05-24T07:53:16.531Z,38.01
2023-05-24T07:55:47.194Z,37.05
2023-05-24T07:58:14.717Z,37.78
2023-05-24T08:00:42.369Z,38.36
2023-05-24T08:03:09.817Z,39.25
2023-05-24T08:05:37.340Z,39.78
2023-05-24T08:08:05.273Z,39.22
2023-05-24T08:10:32.738Z,39.50
2023-05-24T08:13:00.575Z,39.88
2023-05-24T08:15:27.879Z,40.62
2023-05-24T08:17:55.671Z,39.97
2023-05-24T08:20:23.921Z,38.02
2023-05-24T08:22:51.755Z,38.33
2023-05-24T08:25:20.281Z,39.00
2023-05-24T08:27:47.701Z,38.72
2023-05-24T08:30:15.325Z,37.28
2023-05-24T08:32:42.787Z,35.60
2023-05-24T08:35:19.172Z,35.12
2023-05-24T08:37:48.675Z,35.28
2023-05-24T08:40:16.209Z,35.61
2023-05-24T08:42:45.287Z,35.36
2023-05-24T08:45:14.088Z,33.90
2023-05-24T08:47:42.790Z,33.01
2023-05-24T08:50:12.073Z,33.55
2023-05-24T08:52:40.900Z,34.89
2023-05-24T08:55:12.156Z,36.70
2023-05-24T08:57:41.860Z,38.31
2023-05-24T09:00:14.302Z,39.71
2023-05-24T09:02:43.100Z,40.99
2023-05-24T09:05:12.826Z,41.98
2023-05-24T09:07:42.586Z,43.36
2023-05-24T09:10:11.321Z,44.33
2023-05-24T09:12:40.681Z,45.00
2023-05-24T09:15:09.119Z,46.10
2023-05-24T09:17:38.196Z,45.05
2023-05-24T09:20:11.210Z,43.98
2023-05-24T09:22:42.285Z,44.58
2023-05-24T09:25:13.322Z,44.41
2023-05-24T09:27:41.014Z,45.28
2023-05-24T09:30:11.355Z,46.32
2023-05-24T09:32:39.240Z,47.34
2023-05-24T09:35:10.899Z,47.34
2023-05-24T09:37:42.305Z,47.79
2023-05-24T09:40:20.450Z,47.93
2023-05-24T09:42:51.755Z,48.21
2023-05-24T09:45:19.639Z,46.09
2023-05-24T09:47:47.316Z,46.86
2023-05-24T09:50:17.620Z,46.24
2023-05-24T09:52:45.973Z,43.96
2023-05-24T09:55:20.046Z,43.96
2023-05-24T09:58:04.022Z,43.87
2023-05-24T10:00:41.361Z,43.96
2023-05-24T10:03:15.438Z,44.95
2023-05-24T10:05:47.030Z,45.84
2023-05-24T10:08:14.954Z,46.58
2023-05-24T10:10:44.107Z,46.50
2023-05-24T10:13:13.261Z,46.75
2023-05-24T10:15:41.087Z,47.03
2023-05-24T10:18:13.924Z,47.09
2023-05-24T10:20:43.490Z,46.81
2023-05-24T10:23:11.914Z,46.37
2023-05-24T10:25:42.504Z,46.93
2023-05-24T10:28:13.151Z,46.97
2023-05-24T10:30:44.914Z,47.30
2023-05-24T10:33:14.898Z,48.01
2023-05-24T10:35:44.069Z,48.46
2023-05-24T10:38:12.082Z,49.14
2023-05-24T10:40:43.948Z,48.69
2023-05-24T10:43:11.861Z,47.57
2023-05-24T10:45:41.406Z,48.25
2023-05-24T10:48:18.830Z,48.79
2023-05-24T10:50:47.108Z,48.39
2023-05-24T10:53:15.189Z,47.81
2023-05-24T10:55:54.357Z,46.30
2023-05-24T10:58:27.828Z,44.33
2023-05-24T11:00:56.374Z,41.90
2023-05-24T11:03:25.181Z,41.21
2023-05-24T11:05:55.178Z,40.78
2023-05-24T11:08:36.480Z,40.04
2023-05-24T11:11:22.387Z,40.45
2023-05-24T11:13:57.874Z,41.20
2023-05-24T11:16:38.715Z,42.27
2023-05-24T11:19:22.150Z,42.92
2023-05-24T11:21:51.739Z,43.51
2023-05-24T11:24:20.948Z,43.72
2023-05-24T11:26:48.713Z,43.82
2023-05-24T11:29:18.351Z,44.24
2023-05-24T11:31:54.520Z,44.59
2023-05-24T11:34:22.427Z,42.15
2023-05-24T11:36:50.573Z,41.68
2023-05-24T11:39:18.587Z,40.87
2023-05-24T11:41:47.552Z,40.43
2023-05-24T11:44:21.594Z,39.62
2023-05-24T11:46:49.246Z,38.98
2023-05-24T11:49:17.680Z,38.56
2023-05-24T11:51:45.179Z,38.89
2023-05-24T11:54:12.919Z,39.45
2023-05-24T11:56:40.734Z,40.35
2023-05-24T11:59:14.480Z,41.41
2023-05-24T12:01:42.513Z,42.38
2023-05-24T12:04:12.423Z,43.10
2023-05-24T12:06:42.320Z,43.55
2023-05-24T12:09:14.334Z,43.47
2023-05-24T12:11:47.763Z,44.01
2023-05-24T12:14:19.331Z,45.00
2023-05-24T12:16:48.004Z,44.58
2023-05-24T12:19:32.188Z,44.58
2023-05-24T12:22:01.162Z,43.60
2023-05-24T12:24:28.765Z,41.76
2023-05-24T12:27:08.108Z,39.32
2023-05-24T12:29:41.167Z,38.70
2023-05-24T12:32:13.557Z,38.66
2023-05-24T12:34:43.203Z,39.07
2023-05-24T12:37:13.360Z,39.74
2023-05-24T12:39:43.372Z,40.08
2023-05-24T12:42:15.167Z,40.14
2023-05-24T12:44:42.777Z,40.35
2023-05-24T12:47:10.340Z,40.77
2023-05-24T12:49:38.152Z,40.51
2023-05-24T12:52:06.908Z,39.84
2023-05-24T12:54:34.610Z,39.73
2023-05-24T12:57:03.468Z,39.70
2023-05-24T12:59:31.535Z,39.94
2023-05-24T13:01:59.057Z,40.37
2023-05-24T13:04:27.921Z,40.36
2023-05-24T13:06:56.303Z,38.65
2023-05-24T13:09:24.204Z,38.66
2023-05-24T13:11:52.922Z,37.56
2023-05-24T13:14:20.757Z,38.12
2023-05-24T13:16:48.346Z,36.99
2023-05-24T13:19:17.606Z,35.48
2023-05-24T13:21:45.974Z,34.36
2023-05-24T13:24:16.651Z,34.56
2023-05-24T13:26:45.447Z,32.88
2023-05-24T13:31:43.952Z,33.50
2023-05-24T13:34:12.093Z,33.19
2023-05-24T13:36:40.322Z,32.51
2023-05-24T13:41:41.650Z,33.29
2023-05-24T13:44:10.300Z,33.19
2023-05-24T13:46:38.963Z,33.07
2023-05-24T13:49:09.776Z,33.16
2023-05-24T13:51:38.646Z,32.96
2023-05-24T13:54:07.888Z,33.60
2023-05-24T13:56:36.791Z,34.08
2023-05-24T13:59:05.647Z,34.16
2023-05-24T14:01:34.976Z,33.99
2023-05-24T14:04:03.290Z,33.47
2023-05-24T14:06:33.017Z,33.21
2023-05-24T14:09:01.201Z,33.34
2023-05-24T14:11:32.029Z,33.21
2023-05-24T14:16:31.417Z,32.77
2023-05-24T14:18:59.249Z,32.77
2023-05-24T14:21:29.403Z,32.71
2023-05-24T14:23:56.656Z,32.57
2023-05-24T14:26:24.338Z,31.69
2023-05-24T14:28:55.983Z,31.35
2023-05-24T14:31:24.943Z,31.28
2023-05-24T14:33:52.454Z,31.49
2023-05-24T14:36:19.974Z,31.46
2023-05-24T14:38:47.400Z,31.67
2023-05-24T14:41:15.815Z,31.09
2023-05-24T14:43:43.528Z,30.67
2023-05-24T14:46:11.605Z,30.33
2023-05-24T14:48:41.862Z,30.27
2023-05-24T14:51:10.292Z,30.39
2023-05-24T14:53:38.843Z,30.46
2023-05-24T14:56:08.723Z,29.64
2023-05-24T14:58:36.923Z,29.59
2023-05-24T15:01:04.566Z,28.92
2023-05-24T15:03:34.042Z,29.16
2023-05-24T15:06:02.747Z,29.15
2023-05-24T15:08:31.552Z,29.21
2023-05-24T15:10:59.269Z,28.90
2023-05-24T15:13:27.566Z,28.83
2023-05-24T15:15:57.103Z,28.88
2023-05-24T15:18:25.852Z,29.02
2023-05-24T15:20:55.914Z,29.08
2023-05-24T15:23:25.748Z,28.56
2023-05-24T15:25:53.588Z,28.86
2023-05-24T15:28:23.464Z,28.42
2023-05-24T15:30:53.635Z,28.24
2023-05-24T15:33:21.250Z,28.26
2023-05-24T15:35:48.710Z,28.40
2023-05-24T15:38:17.921Z,28.13
2023-05-24T15:40:46.358Z,28.21
2023-05-24T15:43:16.531Z,28.00
2023-05-24T15:45:44.961Z,27.50
2023-05-24T15:48:15.658Z,27.40
2023-05-24T15:51:09.360Z,27.73
2023-05-24T15:53:30.689Z,27.79
2023-05-24T15:55:58.477Z,27.76
2023-05-24T15:58:26.071Z,27.77
2023-05-24T16:00:55.411Z,27.84
2023-05-24T16:03:23.479Z,27.80
2023-05-24T16:05:51.838Z,27.76
2023-05-24T16:08:19.455Z,27.78
2023-05-24T16:10:47.687Z,27.76
2023-05-24T16:13:15.039Z,27.74
2023-05-24T16:15:42.929Z,27.71
2023-05-24T16:18:12.137Z,27.66
2023-05-24T16:20:40.020Z,27.54
2023-05-24T16:23:07.865Z,27.42
2023-05-24T16:25:35.650Z,27.25
2023-05-24T16:28:04.035Z,27.06
2023-05-24T16:30:32.201Z,26.88
2023-05-24T16:33:00.186Z,26.64
2023-05-24T16:35:28.125Z,26.45
2023-05-24T16:37:57.499Z,26.26
2023-05-24T16:40:25.649Z,26.07
2023-05-24T16:42:54.758Z,25.93
2023-05-24T16:45:22.940Z,25.75
2023-05-24T16:47:51.448Z,25.59
2023-05-24T16:50:19.218Z,25.41
2023-05-24T16:52:46.973Z,25.23
2023-05-24T16:55:16.534Z,25.03
2023-05-24T16:57:44.190Z,24.78
2023-05-24T17:00:12.104Z,24.55
2023-05-24T17:02:40.292Z,24.32
2023-05-24T17:05:08.120Z,24.10
2023-05-24T17:07:37.804Z,23.88
2023-05-24T17:10:06.130Z,23.65
2023-05-24T17:12:33.748Z,23.43
2023-05-24T17:15:01.469Z,23.24
2023-05-24T17:17:28.976Z,23.03
2023-05-24T17:19:56.734Z,22.86
2023-05-24T17:22:25.178Z,22.67
2023-05-24T17:24:53.119Z,22.51
2023-05-24T17:27:22.496Z,22.32
2023-05-24T17:29:50.718Z,22.15
2023-05-24T17:32:19.061Z,22.02
2023-05-24T17:34:47.200Z,21.85
2023-05-24T17:37:15.011Z,21.72
2023-05-24T17:39:43.019Z,21.55
2023-05-24T17:42:11.093Z,21.38
2023-05-24T17:44:39.519Z,21.23
2023-05-24T17:47:07.195Z,21.07
2023-05-24T17:49:35.141Z,20.92
2023-05-24T17:52:02.808Z,20.78
2023-05-24T17:54:30.498Z,20.64
2023-05-24T17:56:58.171Z,20.53
2023-05-24T17:59:25.798Z,20.41
2023-05-24T18:01:53.122Z,20.28
2023-05-24T18:04:20.616Z,20.17
2023-05-24T18:06:47.922Z,20.08
2023-05-24T18:09:16.602Z,19.95
2023-05-24T18:11:44.328Z,19.88
2023-05-24T18:14:11.954Z,19.80
2023-05-24T18:16:40.012Z,19.72
2023-05-24T18:19:07.715Z,19.61
2023-05-24T18:21:35.238Z,19.46
2023-05-24T18:24:02.766Z,19.35
2023-05-24T18:26:30.003Z,19.24
2023-05-24T18:28:57.750Z,19.15
2023-05-24T18:31:25.127Z,19.04
2023-05-24T18:33:53.174Z,18.93
2023-05-24T18:36:20.856Z,18.81
2023-05-24T18:38:48.008Z,18.70
2023-05-24T18:41:16.917Z,18.63
2023-05-24T18:43:44.878Z,18.54
2023-05-24T18:46:15.410Z,18.46
2023-05-24T18:48:43.185Z,18.40
2023-05-24T18:51:11.088Z,18.32
2023-05-24T18:53:38.899Z,18.30
2023-05-24T18:56:06.938Z,18.27
2023-05-24T18:58:34.565Z,18.22
2023-05-24T19:01:02.434Z,18.16
2023-05-24T19:03:30.030Z,18.10
2023-05-24T19:05:57.593Z,18.03
2023-05-24T19:08:25.007Z,17.95
2023-05-24T19:10:52.361Z,17.85
2023-05-24T19:13:19.960Z,17.75
2023-05-24T19:15:47.474Z,17.66
2023-05-24T19:18:15.086Z,17.54
2023-05-24T19:20:43.500Z,17.40
2023-05-24T19:23:10.764Z,17.26
2023-05-24T19:25:42.175Z,17.20
2023-05-24T19:28:11.288Z,17.13
2023-05-24T19:30:38.608Z,17.11
2023-05-24T19:33:07.415Z,17.09
2023-05-24T19:35:35.373Z,17.08
2023-05-24T19:38:03.302Z,17.06
2023-05-24T19:40:30.835Z,17.02
2023-05-24T19:42:58.467Z,16.99
2023-05-24T19:45:26.008Z,16.97
2023-05-24T19:47:53.799Z,16.91
2023-05-24T19:50:21.687Z,16.82
2023-05-24T19:52:49.426Z,16.72
2023-05-24T19:55:17.648Z,16.67
2023-05-24T19:57:45.205Z,16.61
2023-05-24T20:00:14.274Z,16.52
2023-05-24T20:02:41.829Z,16.49
2023-05-24T20:05:09.606Z,16.45
2023-05-24T20:07:37.219Z,16.37
2023-05-24T20:10:05.989Z,16.30
2023-05-24T20:12:34.872Z,16.19
2023-05-24T20:15:02.786Z,16.09
2023-05-24T20:17:30.866Z,16.00
2023-05-24T20:19:58.419Z,15.91
2023-05-24T20:22:26.114Z,15.81
2023-05-24T20:24:53.417Z,15.74
2023-05-24T20:27:21.738Z,15.70
2023-05-24T20:29:49.268Z,15.66
2023-05-24T20:32:17.489Z,15.60
2023-05-24T20:34:44.952Z,15.55
2023-05-24T20:37:12.479Z,15.51
2023-05-24T20:39:40.147Z,15.47
2023-05-24T20:42:08.730Z,15.47
2023-05-24T20:44:36.713Z,15.45
2023-05-24T20:47:04.351Z,15.43
2023-05-24T20:49:32.000Z,15.41
2023-05-24T20:51:59.652Z,15.37
2023-05-24T20:54:27.255Z,15.34
2023-05-24T20:56:54.723Z,15.28
2023-05-24T20:59:22.180Z,15.21
2023-05-24T21:01:49.662Z,15.14
2023-05-24T21:04:17.154Z,15.08
2023-05-24T21:06:45.066Z,15.05
2023-05-24T21:09:12.308Z,15.05
2023-05-24T21:11:39.689Z,15.06
2023-05-24T21:14:08.347Z,15.05
2023-05-24T21:16:36.734Z,14.99
2023-05-24T21:19:04.178Z,14.90
2023-05-24T21:21:31.444Z,14.83
2023-05-24T21:23:59.157Z,14.78
2023-05-24T21:26:27.073Z,14.71
2023-05-24T21:28:54.575Z,14.67
2023-05-24T21:31:23.181Z,14.62
2023-05-24T21:33:50.817Z,14.56
2023-05-24T21:36:18.804Z,14.48
2023-05-24T21:38:46.190Z,14.42
2023-05-24T21:41:13.477Z,14.36
2023-05-24T21:43:42.200Z,14.32
2023-05-24T21:46:09.905Z,14.25
2023-05-24T21:48:37.541Z,14.21
2023-05-24T21:51:05.619Z,14.17
2023-05-24T21:53:33.230Z,14.12
2023-05-24T21:56:00.695Z,14.03
2023-05-24T21:58:28.074Z,13.93
2023-05-24T22:00:55.595Z,13.83
2023-05-24T22:03:23.078Z,13.75
2023-05-24T22:05:50.842Z,13.70
2023-05-24T22:08:18.696Z,13.65
2023-05-24T22:10:46.205Z,13.57
2023-05-24T22:13:13.803Z,13.51
2023-05-24T22:15:41.727Z,13.44
2023-05-24T22:18:09.551Z,13.40
2023-05-24T22:20:37.172Z,13.39
2023-05-24T22:23:04.417Z,13.40
2023-05-24T22:25:31.926Z,13.38
2023-05-24T22:27:59.441Z,13.35
2023-05-24T22:30:27.383Z,13.31
2023-05-24T22:32:56.114Z,13.23
2023-05-24T22:35:23.710Z,13.15
2023-05-24T22:37:51.350Z,13.10
2023-05-24T22:40:18.901Z,13.05
2023-05-24T22:42:46.836Z,12.99
2023-05-24T22:45:14.452Z,12.96
2023-05-24T22:47:41.983Z,12.92
2023-05-24T22:50:09.990Z,12.90
2023-05-24T22:52:42.746Z,12.87
2023-05-24T22:55:13.254Z,12.86
2023-05-24T22:57:40.945Z,12.86
2023-05-24T23:00:08.990Z,12.88
2023-05-24T23:02:36.826Z,12.85
2023-05-24T23:05:05.702Z,12.80
2023-05-24T23:07:33.279Z,12.78
2023-05-24T23:10:00.983Z,12.75
2023-05-24T23:12:28.298Z,12.72
2023-05-24T23:14:58.470Z,12.72
2023-05-24T23:17:26.615Z,12.70
2023-05-24T23:19:54.379Z,12.67
2023-05-24T23:22:24.146Z,12.65
2023-05-24T23:24:51.619Z,12.66
2023-05-24T23:27:19.213Z,12.64
2023-05-24T23:29:46.942Z,12.63
2023-05-24T23:32:14.367Z,12.63
2023-05-24T23:34:41.669Z,12.64
2023-05-24T23:37:09.345Z,12.65
2023-05-24T23:39:37.253Z,12.71
2023-05-24T23:42:05.191Z,12.73
2023-05-24T23:44:32.666Z,12.72
2023-05-24T23:47:00.206Z,12.70
2023-05-24T23:49:28.144Z,12.68
2023-05-24T23:51:55.604Z,12.63
2023-05-24T23:54:23.086Z,12.53
2023-05-24T23:56:53.653Z,12.44
2023-05-24T23:59:21.336Z,12.36
